Time;durP1;ratioP1;P1;durP2;ratioP2;P2;SDS_P1;SDS_P2;PMS_P1;PMS_P2;Temp;Humidity;BMP_temperature;BMP_pressure;BME280_temperature;BME280_humidity;BME280_pressure;Samples;Min_cycle;Max_cycle;Signal;HPM_P1;HPM_P2
2023/08/26 00:00:40;;;;;;;12.63;11.07;;;;;;;24.34;80.03;94649.66;5050698;28;20352;-43
2023/08/26 00:03:07;;;;;;;11.98;10.75;;;;;;;24.32;80.16;94645.69;5050313;28;20199;-44
2023/08/26 00:05:33;;;;;;;13.55;10.80;;;;;;;24.32;79.90;94649.09;5050478;28;20200;-43
2023/08/26 00:08:02;;;;;;;12.32;11.02;;;;;;;24.32;80.01;94645.69;5050228;28;20222;-43
2023/08/26 00:10:29;;;;;;;12.88;10.18;;;;;;;24.31;79.88;94647.50;5050412;28;20256;-45
2023/08/26 00:12:55;;;;;;;14.60;10.02;;;;;;;24.27;79.99;94647.16;5050363;28;20712;-43
2023/08/26 00:15:23;;;;;;;15.25;10.57;;;;;;;24.26;80.34;94648.13;5049908;28;20194;-43
2023/08/26 00:17:49;;;;;;;11.32;10.20;;;;;;;24.24;80.52;94642.34;5050129;28;20187;-43
2023/08/26 00:20:16;;;;;;;15.52;11.02;;;;;;;24.21;80.21;94649.84;5050074;28;20256;-43
2023/08/26 00:22:43;;;;;;;11.77;10.68;;;;;;;24.08;80.52;94632.53;5049887;28;20195;-42
2023/08/26 00:25:11;;;;;;;12.70;10.45;;;;;;;24.14;80.94;94644.72;5049868;28;20208;-45
2023/08/26 00:27:38;;;;;;;12.35;10.68;;;;;;;24.09;81.00;94641.97;5050074;28;20242;-45
2023/08/26 00:30:06;;;;;;;14.70;10.80;;;;;;;24.06;81.36;94642.44;5050183;28;20198;-43
2023/08/26 00:32:33;;;;;;;15.70;11.13;;;;;;;24.04;81.32;94642.63;5050129;28;20650;-45
2023/08/26 00:35:00;;;;;;;13.15;10.75;;;;;;;23.99;81.42;94633.88;5049784;28;20190;-44
2023/08/26 00:37:27;;;;;;;11.77;10.57;;;;;;;23.97;81.61;94630.69;5049895;28;20190;-43
2023/08/26 00:39:54;;;;;;;14.52;11.32;;;;;;;23.93;81.85;94632.94;5049750;28;20187;-43
2023/08/26 00:42:22;;;;;;;12.95;10.65;;;;;;;23.92;82.26;94636.59;5049741;28;20203;-43
2023/08/26 00:44:48;;;;;;;12.05;10.52;;;;;;;23.92;82.54;94639.19;5049693;28;20264;-43
2023/08/26 00:47:15;;;;;;;12.00;10.80;;;;;;;23.88;82.66;94634.66;5049303;28;20214;-43
2023/08/26 00:49:42;;;;;;;16.90;10.95;;;;;;;23.83;82.64;94632.66;5049912;28;20234;-43
2023/08/26 00:52:09;;;;;;;12.70;11.35;;;;;;;23.84;82.75;94636.09;5049400;28;20214;-43
2023/08/26 00:54:36;;;;;;;13.75;10.88;;;;;;;23.81;82.87;94633.94;5049980;28;20183;-43
2023/08/26 00:57:05;;;;;;;13.32;11.27;;;;;;;23.79;83.26;94634.13;5049825;28;20620;-44
2023/08/26 00:59:33;;;;;;;12.85;10.93;;;;;;;23.77;83.36;94630.94;5049604;28;20199;-43
2023/08/26 01:02:01;;;;;;;12.57;11.00;;;;;;;23.70;83.72;94630.22;5049341;28;20190;-44
2023/08/26 01:04:28;;;;;;;11.30;10.13;;;;;;;23.44;83.93;94592.97;5049344;28;20561;-44
2023/08/26 01:06:55;;;;;;;12.30;10.45;;;;;;;23.70;83.90;94631.03;5048534;28;20249;-44
2023/08/26 01:09:22;;;;;;;13.73;10.68;;;;;;;23.69;83.92;94632.03;5049423;28;20186;-43
2023/08/26 01:11:59;;;;;;;10.95;9.90;;;;;;;23.67;83.89;94630.69;5049120;28;20202;-43
2023/08/26 01:14:33;;;;;;;12.27;11.07;;;;;;;23.52;84.18;94616.16;5049764;28;20229;-43
2023/08/26 01:17:02;;;;;;;13.95;10.45;;;;;;;23.62;84.28;94638.34;5049453;28;20190;-43
2023/08/26 01:19:33;;;;;;;15.32;9.88;;;;;;;23.41;84.15;94606.47;5049292;28;20194;-42
2023/08/26 01:22:05;;;;;;;11.50;10.30;;;;;;;23.39;84.23;94598.03;5049300;28;20190;-45
2023/08/26 01:24:35;;;;;;;11.85;10.63;;;;;;;23.61;84.20;94631.53;5049133;28;20666;-42
2023/08/26 01:27:02;;;;;;;12.63;10.70;;;;;;;23.62;83.91;94638.34;5049001;28;20227;-44
2023/08/26 01:29:28;;;;;;;12.35;10.68;;;;;;;23.60;83.40;94635.94;5049442;28;20198;-44
2023/08/26 01:32:06;;;;;;;12.10;10.30;;;;;;;23.57;83.19;94636.38;5048793;28;20214;-44
2023/08/26 01:34:37;;;;;;;15.50;10.10;;;;;;;23.49;83.17;94642.72;5049482;28;20187;-45
2023/08/26 01:37:04;;;;;;;12.38;10.65;;;;;;;23.43;83.45;94632.34;5049190;28;20202;-42
2023/08/26 01:39:33;;;;;;;11.25;10.00;;;;;;;23.40;83.17;94638.00;5049095;28;20194;-43
2023/08/26 01:42:02;;;;;;;14.55;9.55;;;;;;;23.37;83.40;94638.44;5048870;28;20195;-43
2023/08/26 01:44:31;;;;;;;12.15;10.95;;;;;;;23.34;83.43;94646.72;5048982;28;20222;-44
2023/08/26 01:46:58;;;;;;;10.77;9.68;;;;;;;23.30;83.57;94638.50;5049340;28;20703;-43
2023/08/26 01:49:24;;;;;;;13.55;10.45;;;;;;;23.25;83.63;94641.78;5050547;28;20206;-43
2023/08/26 01:51:51;;;;;;;12.15;10.52;;;;;;;23.25;83.23;94647.00;5048879;28;20279;-43
2023/08/26 01:54:18;;;;;;;13.05;10.38;;;;;;;23.18;84.11;94624.59;5048953;28;20202;-45
2023/08/26 01:56:46;;;;;;;13.98;10.52;;;;;;;23.26;84.01;94642.56;5048786;28;20195;-44
2023/08/26 01:59:13;;;;;;;11.55;10.50;;;;;;;23.21;84.04;94640.59;5048950;28;20191;-43
2023/08/26 02:01:39;;;;;;;14.48;10.45;;;;;;;23.08;84.30;94622.50;5048817;28;20203;-43
2023/08/26 02:04:06;;;;;;;15.63;11.30;;;;;;;23.20;84.97;94641.63;5048928;28;20202;-43
2023/08/26 02:06:33;;;;;;;13.07;11.75;;;;;;;23.13;84.89;94635.69;5048665;28;20187;-43
2023/08/26 02:09:00;;;;;;;17.85;11.73;;;;;;;23.06;85.50;94629.75;5048638;28;20226;-43
2023/08/26 02:11:27;;;;;;;12.57;11.13;;;;;;;22.99;85.43;94626.41;5048857;28;20559;-42
2023/08/26 02:13:55;;;;;;;11.95;10.75;;;;;;;22.96;85.62;94627.63;5048431;28;20214;-42
2023/08/26 02:16:22;;;;;;;14.60;10.75;;;;;;;22.96;85.60;94621.59;5048814;28;20210;-46
2023/08/26 02:18:49;;;;;;;11.88;10.68;;;;;;;22.96;85.70;94624.22;5050367;28;20256;-45
2023/08/26 02:21:16;;;;;;;14.32;10.88;;;;;;;22.95;85.97;94626.03;5052364;28;20199;-50
2023/08/26 02:23:43;;;;;;;16.27;11.13;;;;;;;22.96;86.09;94621.59;5052028;28;20195;-44
2023/08/26 02:26:09;;;;;;;17.58;11.68;;;;;;;22.94;86.51;94616.63;5052424;28;20225;-44
2023/08/26 02:28:36;;;;;;;16.70;11.90;;;;;;;22.83;86.37;94601.63;5052022;28;20266;-43
2023/08/26 02:31:06;;;;;;;12.43;11.23;;;;;;;22.85;86.50;94602.22;5052629;28;20237;-44
2023/08/26 02:33:33;;;;;;;16.67;12.30;;;;;;;22.68;86.75;94586.34;5052410;28;20199;-43
2023/08/26 02:36:00;;;;;;;14.50;10.93;;;;;;;22.78;87.00;94610.09;5052059;28;20198;-44
2023/08/26 02:38:26;;;;;;;13.75;11.60;;;;;;;22.74;86.97;94613.34;5052161;28;20191;-44
2023/08/26 02:40:53;;;;;;;13.32;11.82;;;;;;;22.78;87.25;94614.53;5051932;28;20202;-45
2023/08/26 02:43:20;;;;;;;12.27;10.23;;;;;;;22.76;86.86;94617.34;5052079;28;20199;-44
2023/08/26 02:45:51;;;;;;;13.48;10.98;;;;;;;22.79;87.30;94614.31;5051973;28;20222;-43
2023/08/26 02:48:20;;;;;;;11.65;10.32;;;;;;;22.79;87.22;94616.91;5052078;28;20234;-43
2023/08/26 02:50:46;;;;;;;12.98;10.80;;;;;;;22.66;87.19;94595.38;5051603;28;20187;-43
2023/08/26 02:53:13;;;;;;;14.13;11.05;;;;;;;22.71;87.28;94611.16;5052016;28;20197;-43
2023/08/26 02:55:40;;;;;;;12.55;10.75;;;;;;;22.65;87.26;94615.44;5051636;28;20187;-43
2023/08/26 02:58:07;;;;;;;16.48;11.05;;;;;;;22.61;87.16;94606.44;5051873;28;20199;-43
2023/08/26 03:00:34;;;;;;;11.93;10.73;;;;;;;22.65;87.37;94612.84;5051748;28;20198;-43
2023/08/26 03:03:01;;;;;;;12.50;11.00;;;;;;;22.61;87.28;94611.66;5051562;28;20659;-43
2023/08/26 03:05:29;;;;;;;13.45;11.52;;;;;;;22.59;87.20;94613.72;5051456;28;20199;-42
2023/08/26 03:07:55;;;;;;;14.07;10.52;;;;;;;22.58;87.49;94617.28;5051545;28;20694;-43
2023/08/26 03:10:22;;;;;;;12.30;10.40;;;;;;;22.54;87.67;94619.56;5051654;28;20248;-43
2023/08/26 03:12:49;;;;;;;16.80;11.00;;;;;;;22.50;87.83;94610.56;5051033;28;20578;-44
2023/08/26 03:15:16;;;;;;;17.63;11.43;;;;;;;22.46;87.81;94622.44;5051647;28;20541;-44
2023/08/26 03:17:43;;;;;;;13.10;11.05;;;;;;;22.45;87.78;94631.25;5051555;28;20202;-43
2023/08/26 03:20:11;;;;;;;13.40;11.27;;;;;;;22.46;88.19;94630.25;5051567;28;20182;-43
2023/08/26 03:22:39;;;;;;;13.25;11.32;;;;;;;22.44;88.02;94627.03;5050931;28;20190;-44
2023/08/26 03:25:06;;;;;;;14.25;10.70;;;;;;;22.39;88.16;94615.66;5051324;28;20686;-43
2023/08/26 03:27:33;;;;;;;14.32;10.13;;;;;;;22.34;88.44;94626.72;5050727;28;20281;-44
2023/08/26 03:30:00;;;;;;;15.32;10.88;;;;;;;22.31;88.73;94642.78;5050077;28;20330;-43
2023/08/26 03:32:27;;;;;;;15.90;11.05;;;;;;;22.28;89.21;94633.59;5051146;28;20183;-44
2023/08/26 03:34:53;;;;;;;13.00;11.60;;;;;;;22.25;89.57;94639.22;5051000;28;20278;-43
2023/08/26 03:37:20;;;;;;;13.23;10.77;;;;;;;22.25;89.23;94638.44;5050924;28;20191;-43
2023/08/26 03:39:48;;;;;;;13.07;11.38;;;;;;;22.23;89.71;94641.22;5052845;28;20662;-43
2023/08/26 03:42:15;;;;;;;13.15;10.70;;;;;;;22.23;89.86;94649.03;5052048;28;20190;-43
2023/08/26 03:44:42;;;;;;;15.43;11.35;;;;;;;22.23;89.86;94648.25;5050955;28;20187;-42
2023/08/26 03:47:09;;;;;;;14.90;11.52;;;;;;;22.23;89.52;94649.03;5051042;28;20636;-43
2023/08/26 03:49:36;;;;;;;11.88;10.68;;;;;;;22.23;89.66;94650.84;5050741;28;20218;-44
2023/08/26 03:52:02;;;;;;;14.70;11.20;;;;;;;22.12;89.77;94628.06;5050841;28;20574;-43
2023/08/26 03:54:29;;;;;;;11.25;10.07;;;;;;;22.24;89.44;94648.03;5050608;28;20198;-45
2023/08/26 03:56:57;;;;;;;13.80;11.25;;;;;;;22.18;89.57;94638.44;5050587;28;20571;-45
2023/08/26 03:59:24;;;;;;;14.60;11.07;;;;;;;22.14;89.28;94634.66;5050716;28;20268;-44
2023/08/26 04:01:51;;;;;;;14.50;11.25;;;;;;;22.26;89.19;94647.81;5050814;28;20686;-43
2023/08/26 04:04:18;;;;;;;14.00;12.18;;;;;;;22.32;89.13;94654.78;5050479;28;20294;-43
2023/08/26 04:06:44;;;;;;;15.20;10.85;;;;;;;22.32;88.96;94646.97;5050956;28;20378;-44
2023/08/26 04:09:11;;;;;;;15.57;10.20;;;;;;;22.35;88.69;94643.94;5050164;28;20597;-42
2023/08/26 04:11:40;;;;;;;16.75;12.50;;;;;;;22.41;88.56;94650.13;5050207;28;20648;-42
2023/08/26 04:14:08;;;;;;;12.23;10.93;;;;;;;22.45;88.24;94648.69;5050241;28;20268;-45
2023/08/26 04:16:35;;;;;;;15.73;11.43;;;;;;;22.49;88.01;94652.47;5050158;28;20199;-45
2023/08/26 04:19:02;;;;;;;21.00;11.25;;;;;;;22.53;87.60;94654.44;5050200;28;20187;-43
2023/08/26 04:21:29;;;;;;;14.55;11.32;;;;;;;22.52;87.52;94655.44;5050001;28;20654;-43
2023/08/26 04:23:56;;;;;;;15.77;11.15;;;;;;;22.33;87.44;94624.34;5050293;28;20187;-44
2023/08/26 04:26:23;;;;;;;15.48;11.93;;;;;;;22.51;87.42;94656.47;5049827;28;20195;-43
2023/08/26 04:28:50;;;;;;;18.75;11.73;;;;;;;22.40;87.46;94640.72;5049802;28;20242;-43
2023/08/26 04:31:18;;;;;;;13.55;11.00;;;;;;;22.55;86.96;94664.66;5049761;28;20186;-43
2023/08/26 04:33:44;;;;;;;16.92;10.75;;;;;;;22.58;87.16;94664.22;5049837;28;20236;-43
2023/08/26 04:36:11;;;;;;;13.48;10.27;;;;;;;22.67;86.90;94655.16;5049615;28;20191;-44
2023/08/26 04:38:38;;;;;;;14.65;11.20;;;;;;;22.84;86.16;94667.63;5049950;28;20647;-44
2023/08/26 04:41:05;;;;;;;14.82;10.45;;;;;;;23.01;85.38;94666.91;5049205;28;20538;-43
2023/08/26 04:43:32;;;;;;;11.75;10.50;;;;;;;23.27;84.79;94675.47;5050058;28;20187;-44
2023/08/26 04:45:58;;;;;;;14.85;10.93;;;;;;;23.45;83.43;94672.09;5049701;28;20183;-44
2023/08/26 04:48:28;;;;;;;15.15;12.23;;;;;;;23.70;82.62;94674.63;5049611;28;20280;-43
2023/08/26 04:50:55;;;;;;;14.73;11.70;;;;;;;23.91;81.27;94681.19;5049379;28;20187;-43
2023/08/26 04:53:22;;;;;;;14.60;11.73;;;;;;;24.08;80.38;94674.34;5049734;28;20191;-45
2023/08/26 04:55:51;;;;;;;12.98;11.57;;;;;;;24.20;80.09;94682.22;5049803;28;20195;-42
2023/08/26 04:58:18;;;;;;;16.58;11.43;;;;;;;24.24;79.51;94686.00;5049409;28;20741;-43
2023/08/26 05:00:44;;;;;;;14.25;12.43;;;;;;;24.32;78.97;94677.84;5049647;28;20282;-44
2023/08/26 05:03:11;;;;;;;14.75;11.75;;;;;;;24.32;79.26;94680.44;5049462;28;20187;-43
2023/08/26 05:05:42;;;;;;;15.93;12.23;;;;;;;24.34;78.93;94670.56;5049531;28;20194;-43
2023/08/26 05:08:09;;;;;;;16.85;11.55;;;;;;;24.39;79.02;94675.16;5049167;28;20222;-43
2023/08/26 05:10:36;;;;;;;14.35;12.15;;;;;;;24.40;78.96;94669.72;5049369;28;20206;-43
2023/08/26 05:13:03;;;;;;;14.10;12.57;;;;;;;24.43;78.64;94674.47;5049315;28;20214;-43
2023/08/26 05:15:30;;;;;;;13.65;11.98;;;;;;;24.49;78.45;94670.97;5049369;28;20199;-43
2023/08/26 05:17:59;;;;;;;15.68;12.95;;;;;;;24.59;78.56;94678.25;5049116;28;20195;-43
2023/08/26 05:20:27;;;;;;;16.92;12.98;;;;;;;24.66;78.31;94668.50;5049648;28;20187;-44
2023/08/26 05:22:55;;;;;;;16.23;11.43;;;;;;;24.88;77.49;94675.81;5049085;28;20286;-44
2023/08/26 05:25:22;;;;;;;15.25;11.55;;;;;;;25.23;76.09;94670.59;5049741;28;20194;-43
2023/08/26 05:27:49;;;;;;;15.02;12.35;;;;;;;25.42;74.57;94671.25;5048936;28;20313;-44
2023/08/26 05:30:16;;;;;;;15.15;13.35;;;;;;;25.66;73.91;94677.25;5049729;28;20202;-44
2023/08/26 05:32:42;;;;;;;18.08;12.68;;;;;;;25.80;73.18;94678.59;5051514;28;20197;-44
2023/08/26 05:35:09;;;;;;;15.75;12.18;;;;;;;25.91;72.41;94675.16;5049550;28;20193;-44
2023/08/26 05:37:36;;;;;;;19.52;14.20;;;;;;;26.06;72.05;94687.72;5049185;28;20674;-44
2023/08/26 05:40:05;;;;;;;14.40;12.73;;;;;;;26.18;71.12;94678.00;5049195;28;20191;-44
2023/08/26 05:42:32;;;;;;;15.35;13.85;;;;;;;26.44;70.20;94675.84;5049481;28;20183;-44
2023/08/26 05:44:59;;;;;;;17.98;13.77;;;;;;;26.67;69.52;94682.78;5048988;28;20191;-43
2023/08/26 05:47:26;;;;;;;17.38;13.40;;;;;;;26.93;68.63;94678.72;5049246;28;20199;-45
2023/08/26 05:49:52;;;;;;;16.33;14.52;;;;;;;27.22;66.88;94677.59;5048874;28;20227;-44
2023/08/26 05:52:19;;;;;;;16.50;14.80;;;;;;;27.39;66.86;94679.41;5048979;28;20191;-44
2023/08/26 05:54:46;;;;;;;14.45;12.75;;;;;;;27.73;65.24;94680.13;5052115;28;20199;-45
2023/08/26 05:57:14;;;;;;;18.42;13.38;;;;;;;28.04;64.33;94683.09;5053296;28;20183;-43
2023/08/26 05:59:41;;;;;;;16.08;13.80;;;;;;;28.30;63.21;94676.25;5052955;28;20195;-44
2023/08/26 06:02:08;;;;;;;17.95;13.85;;;;;;;28.48;62.52;94689.06;5053158;28;20195;-44
2023/08/26 06:04:34;;;;;;;16.20;13.30;;;;;;;28.66;61.85;94682.66;5052697;28;20210;-43
2023/08/26 06:07:01;;;;;;;13.80;12.40;;;;;;;28.89;61.10;94682.31;5053097;28;20194;-44
2023/08/26 06:09:28;;;;;;;14.90;11.45;;;;;;;29.30;59.60;94676.53;5052880;28;20230;-44
2023/08/26 06:11:55;;;;;;;14.63;13.15;;;;;;;29.65;58.18;94683.84;5052593;28;20199;-43
2023/08/26 06:14:23;;;;;;;13.23;11.00;;;;;;;29.88;57.69;94680.81;5052882;28;20191;-43
2023/08/26 06:16:50;;;;;;;16.13;11.77;;;;;;;30.18;56.94;94674.03;5052563;28;20566;-43
2023/08/26 06:19:17;;;;;;;15.93;11.18;;;;;;;30.54;55.31;94689.94;5052573;28;20191;-43
2023/08/26 06:21:44;;;;;;;11.80;10.63;;;;;;;30.85;54.19;94680.22;5052361;28;20183;-44
2023/08/26 06:24:10;;;;;;;14.68;11.45;;;;;;;31.02;53.78;94687.84;5052385;28;20183;-45
2023/08/26 06:26:37;;;;;;;19.90;12.00;;;;;;;31.02;53.73;94688.66;5052543;28;20206;-45
2023/08/26 06:29:04;;;;;;;18.95;11.68;;;;;;;30.90;53.94;94688.13;5052035;28;20250;-43
2023/08/26 06:31:32;;;;;;;18.88;12.95;;;;;;;30.87;53.99;94694.75;5052070;28;20260;-42
2023/08/26 06:33:59;;;;;;;13.73;11.77;;;;;;;30.80;53.85;94690.78;5052399;28;20261;-44
2023/08/26 06:36:26;;;;;;;12.55;10.75;;;;;;;30.83;54.14;94691.03;5051803;28;20214;-44
2023/08/26 06:38:52;;;;;;;12.77;10.75;;;;;;;30.95;54.01;94688.13;5052061;28;20569;-44
2023/08/26 06:41:19;;;;;;;15.65;12.02;;;;;;;31.16;53.47;94692.31;5052045;28;20195;-44
2023/08/26 06:43:46;;;;;;;16.02;11.98;;;;;;;31.12;53.83;94698.41;5052123;28;20573;-44
2023/08/26 06:46:13;;;;;;;21.95;11.20;;;;;;;31.25;53.39;94703.13;5052120;28;20195;-44
2023/08/26 06:48:41;;;;;;;14.35;11.95;;;;;;;31.56;51.60;94709.19;5051823;28;20745;-44
2023/08/26 06:51:08;;;;;;;12.95;11.55;;;;;;;31.62;51.30;94702.03;5051959;28;20195;-42
2023/08/26 06:53:35;;;;;;;15.70;11.90;;;;;;;31.58;51.65;94699.13;5052014;28;20253;-44
2023/08/26 06:56:02;;;;;;;19.10;11.38;;;;;;;31.71;50.83;94703.84;5052005;28;20261;-43
2023/08/26 06:58:29;;;;;;;17.02;10.77;;;;;;;31.73;51.08;94711.50;5051576;28;20191;-45
2023/08/26 07:00:55;;;;;;;17.17;11.55;;;;;;;31.83;50.84;94705.41;5052299;28;20187;-45
2023/08/26 07:03:24;;;;;;;15.00;11.23;;;;;;;31.79;50.51;94707.00;5051517;28;20290;-43
2023/08/26 07:05:52;;;;;;;16.35;11.82;;;;;;;31.78;50.74;94700.94;5051559;28;20283;-44
2023/08/26 07:08:19;;;;;;;20.27;10.90;;;;;;;31.76;51.13;94702.25;5051411;28;20197;-43
2023/08/26 07:10:47;;;;;;;12.20;10.73;;;;;;;31.94;50.49;94707.75;5051568;28;20681;-44
2023/08/26 07:13:14;;;;;;;14.50;10.35;;;;;;;32.18;49.92;94701.84;5051318;28;20644;-43
2023/08/26 07:15:41;;;;;;;12.70;9.80;;;;;;;32.45;49.15;94704.88;5051809;28;20184;-43
2023/08/26 07:18:08;;;;;;;13.32;10.30;;;;;;;32.77;48.29;94706.22;5051492;28;20216;-44
2023/08/26 07:20:35;;;;;;;11.10;9.45;;;;;;;33.00;47.47;94703.97;5051268;28;20195;-44
2023/08/26 07:23:03;;;;;;;13.70;9.70;;;;;;;33.31;46.76;94702.63;5051452;28;20281;-45
2023/08/26 07:25:30;;;;;;;15.07;8.05;;;;;;;33.51;45.88;94703.50;5053140;28;20195;-44
2023/08/26 07:27:57;;;;;;;13.45;9.07;;;;;;;33.62;45.29;94694.38;5051161;28;20231;-44
2023/08/26 07:30:26;;;;;;;9.38;8.40;;;;;;;33.77;44.64;94694.22;5051099;28;20223;-44
2023/08/26 07:32:53;;;;;;;14.90;9.68;;;;;;;33.98;44.51;94701.94;5051621;28;20241;-44
2023/08/26 07:35:20;;;;;;;11.77;8.18;;;;;;;34.13;44.01;94699.88;5050934;28;20195;-44
2023/08/26 07:37:47;;;;;;;12.57;8.75;;;;;;;34.30;43.37;94696.72;5051410;28;20206;-44
2023/08/26 07:40:15;;;;;;;8.88;8.05;;;;;;;34.35;43.30;94701.19;5050891;28;20559;-44
2023/08/26 07:42:43;;;;;;;9.73;8.07;;;;;;;34.40;42.87;94695.78;5051343;28;20184;-45
2023/08/26 07:45:10;;;;;;;13.68;7.95;;;;;;;34.50;42.55;94693.03;5050795;28;20279;-44
2023/08/26 07:47:37;;;;;;;13.68;8.45;;;;;;;34.45;42.81;94696.50;5051230;28;20194;-44
2023/08/26 07:50:05;;;;;;;12.38;8.75;;;;;;;34.49;42.65;94694.09;5050619;28;20309;-45
2023/08/26 07:52:31;;;;;;;13.35;7.60;;;;;;;34.30;43.38;94693.28;5050983;28;20198;-44
2023/08/26 07:54:58;;;;;;;10.35;7.60;;;;;;;34.45;42.67;94693.06;5050626;28;20190;-45
2023/08/26 07:57:26;;;;;;;9.45;7.75;;;;;;;34.61;42.20;94691.78;5050830;28;20194;-45
2023/08/26 07:59:53;;;;;;;11.77;7.57;;;;;;;34.76;41.62;94688.13;5050669;28;20243;-44
2023/08/26 08:02:20;;;;;;;9.40;7.28;;;;;;;34.77;41.76;94679.06;5050688;28;20195;-44
2023/08/26 08:04:48;;;;;;;15.70;7.60;;;;;;;34.99;40.82;94678.47;5050851;28;20183;-43
2023/08/26 08:07:15;;;;;;;10.27;7.68;;;;;;;35.02;41.05;94677.06;5050655;28;20646;-44
2023/08/26 08:09:42;;;;;;;10.95;7.72;;;;;;;35.13;41.32;94671.28;5050800;28;20221;-42
2023/08/26 08:12:09;;;;;;;12.27;8.00;;;;;;;35.31;41.19;94687.47;5050614;28;20186;-43
2023/08/26 08:14:37;;;;;;;10.13;7.65;;;;;;;35.38;40.28;94680.69;5050405;28;20290;-44
2023/08/26 08:17:04;;;;;;;11.45;7.75;;;;;;;35.32;40.12;94671.25;5049998;28;20316;-45
2023/08/26 08:19:31;;;;;;;13.10;7.80;;;;;;;35.30;39.97;94673.41;5050410;28;20195;-43
2023/08/26 08:21:58;;;;;;;13.80;7.47;;;;;;;35.18;40.02;94668.53;5050274;28;20195;-44
2023/08/26 08:24:25;;;;;;;7.75;6.97;;;;;;;35.21;40.21;94669.06;5050593;28;20190;-43
2023/08/26 08:26:51;;;;;;;9.02;7.70;;;;;;;35.24;39.72;94658.63;5049825;28;20190;-43
2023/08/26 08:29:19;;;;;;;7.82;7.13;;;;;;;35.21;39.63;94661.06;5050239;28;20292;-44
2023/08/26 08:31:47;;;;;;;11.00;7.47;;;;;;;35.12;40.10;94653.00;5050121;28;20207;-43
2023/08/26 08:34:13;;;;;;;8.63;7.18;;;;;;;34.85;40.30;94662.47;5050008;28;20198;-45
2023/08/26 08:36:40;;;;;;;10.25;8.00;;;;;;;34.90;39.86;94665.03;5050229;28;20195;-44
2023/08/26 08:39:07;;;;;;;9.13;7.57;;;;;;;34.99;40.14;94664.38;5049907;28;20210;-43
2023/08/26 08:41:36;;;;;;;8.18;6.75;;;;;;;35.10;39.47;94669.22;5049960;28;20187;-45
2023/08/26 08:44:10;;;;;;;9.32;7.53;;;;;;;35.15;39.21;94655.06;5049751;28;20677;-45
2023/08/26 08:46:37;;;;;;;8.57;7.28;;;;;;;35.20;39.43;94662.94;5049847;28;20230;-44
2023/08/26 08:49:06;;;;;;;8.90;6.93;;;;;;;35.22;39.48;94654.66;5049611;28;20219;-43
2023/08/26 08:51:35;;;;;;;12.52;8.18;;;;;;;35.29;39.37;94657.75;5050334;28;20209;-44
2023/08/26 08:54:04;;;;;;;10.40;7.75;;;;;;;35.17;38.83;94640.38;5049629;28;20268;-43
2023/08/26 08:56:33;;;;;;;9.77;8.05;;;;;;;35.31;39.08;94661.66;5050118;28;20284;-43
2023/08/26 08:59:01;;;;;;;9.15;7.63;;;;;;;35.39;39.05;94657.53;5049346;28;20199;-44
2023/08/26 09:01:30;;;;;;;12.48;7.82;;;;;;;35.12;38.85;94597.94;5049533;28;20225;-45
2023/08/26 09:03:57;;;;;;;12.43;7.55;;;;;;;35.58;38.78;94660.13;5049212;28;20230;-44
2023/08/26 09:06:26;;;;;;;10.05;8.05;;;;;;;35.51;38.58;94649.91;5049814;28;20183;-45
2023/08/26 09:08:54;;;;;;;8.40;7.53;;;;;;;35.53;38.37;94650.38;5049195;28;20187;-44
2023/08/26 09:11:21;;;;;;;8.80;7.93;;;;;;;35.66;38.41;94651.44;5049340;28;20225;-46
2023/08/26 09:13:48;;;;;;;13.07;8.00;;;;;;;35.73;38.10;94643.09;5049647;28;20199;-45
2023/08/26 09:16:14;;;;;;;9.40;8.10;;;;;;;35.66;38.13;94640.81;5050176;28;20248;-43
2023/08/26 09:18:41;;;;;;;8.95;7.95;;;;;;;35.62;38.38;94643.28;5049422;28;20194;-43
2023/08/26 09:21:09;;;;;;;8.60;7.70;;;;;;;35.54;38.13;94638.66;5049540;28;20194;-44
2023/08/26 09:23:45;;;;;;;8.25;7.25;;;;;;;35.54;38.68;94638.66;5049371;28;20277;-44
2023/08/26 09:26:12;;;;;;;8.77;7.88;;;;;;;35.40;38.32;94637.84;5049089;28;20193;-43
2023/08/26 09:28:39;;;;;;;10.05;7.18;;;;;;;35.20;38.59;94641.69;5050491;28;20230;-45
2023/08/26 09:31:08;;;;;;;8.75;7.90;;;;;;;35.15;39.02;94636.47;5053438;28;20812;-44
2023/08/26 09:33:35;;;;;;;12.75;8.38;;;;;;;35.18;38.47;94641.94;5053599;28;20289;-44
2023/08/26 09:36:02;;;;;;;11.65;7.57;;;;;;;35.15;38.50;94633.81;5052879;28;20194;-44
2023/08/26 09:38:31;;;;;;;10.38;7.97;;;;;;;34.92;38.81;94638.16;5053631;28;20187;-45
2023/08/26 09:41:01;;;;;;;14.50;8.07;;;;;;;34.82;39.06;94628.47;5053115;28;20276;-44
2023/08/26 09:43:28;;;;;;;9.70;7.53;;;;;;;34.88;39.40;94631.84;5052943;28;20202;-43
2023/08/26 09:45:57;;;;;;;9.00;7.40;;;;;;;35.03;38.97;94630.81;5052906;28;20712;-42
2023/08/26 09:48:25;;;;;;;10.63;8.32;;;;;;;35.11;38.68;94622.16;5053105;28;20191;-44
2023/08/26 09:50:53;;;;;;;8.73;7.93;;;;;;;34.98;38.63;94625.59;5052810;28;20757;-44
2023/08/26 09:53:30;;;;;;;11.05;8.57;;;;;;;34.90;38.18;94621.72;5052884;28;20195;-44
2023/08/26 09:56:00;;;;;;;8.80;7.65;;;;;;;34.66;38.84;94616.53;5052738;28;20226;-51
2023/08/26 09:58:30;;;;;;;8.00;7.30;;;;;;;34.50;38.94;94608.03;5052294;28;20298;-44
2023/08/26 10:01:03;;;;;;;9.25;7.93;;;;;;;34.49;38.87;94606.44;5051364;28;20210;-44
2023/08/26 10:03:32;;;;;;;10.98;7.72;;;;;;;34.49;38.85;94603.78;5053307;28;20183;-45
2023/08/26 10:06:02;;;;;;;9.50;8.48;;;;;;;34.52;39.28;94607.75;5034493;28;20233;-45
2023/08/26 10:08:35;;;;;;;9.15;7.95;;;;;;;34.55;39.02;94596.53;5053121;28;20249;-44
2023/08/26 10:11:05;;;;;;;7.25;6.50;;;;;;;34.53;39.15;94602.13;5052829;28;20219;-44
2023/08/26 10:13:36;;;;;;;9.15;7.55;;;;;;;34.44;39.34;94595.88;5052571;28;20213;-43
2023/08/26 10:16:06;;;;;;;11.75;7.70;;;;;;;34.36;39.40;94581.38;5052601;28;20201;-44
2023/08/26 10:18:40;;;;;;;9.15;7.13;;;;;;;34.45;39.29;94587.59;5052908;28;20245;-44
2023/08/26 10:21:08;;;;;;;9.82;7.10;;;;;;;34.49;37.83;94598.47;5052283;28;20194;-44
2023/08/26 10:23:35;;;;;;;10.45;6.95;;;;;;;34.50;37.58;94601.91;5052570;28;20881;-45
2023/08/26 10:26:04;;;;;;;7.40;6.63;;;;;;;34.46;37.36;94601.69;5052413;28;20195;-45
2023/08/26 10:28:34;;;;;;;8.38;6.45;;;;;;;34.45;37.29;94592.13;5052355;28;20234;-43
2023/08/26 10:31:01;;;;;;;8.88;7.20;;;;;;;34.46;36.93;94583.09;5052068;28;20690;-44
2023/08/26 10:33:28;;;;;;;8.93;6.03;;;;;;;34.49;36.44;94582.53;5052469;28;20186;-44
2023/08/26 10:36:13;;;;;;;9.40;6.38;;;;;;;34.48;36.64;94582.84;5051811;28;20194;-44
2023/08/26 10:38:40;;;;;;;8.18;7.22;;;;;;;34.42;36.53;94585.56;5052120;28;20218;-42
2023/08/26 10:41:13;;;;;;;10.68;8.88;;;;;;;34.24;37.28;94559.00;5051968;28;20194;-44
2023/08/26 10:43:51;;;;;;;9.68;7.15;;;;;;;34.50;37.05;94578.00;5052245;28;20206;-45
2023/08/26 10:46:18;;;;;;;7.45;6.38;;;;;;;34.55;37.12;94576.06;5051675;28;20666;-44
2023/08/26 10:48:57;;;;;;;9.98;8.23;;;;;;;34.64;37.27;94570.88;5051968;28;20206;-44
2023/08/26 10:51:24;;;;;;;12.52;6.82;;;;;;;34.76;36.93;94579.19;5052239;28;20215;-45
2023/08/26 10:53:51;;;;;;;9.45;7.10;;;;;;;34.86;36.53;94571.00;5051952;28;20243;-45
2023/08/26 10:56:21;;;;;;;9.25;6.80;;;;;;;34.87;36.71;94566.47;5051784;28;20199;-43
2023/08/26 10:58:49;;;;;;;8.32;6.88;;;;;;;34.89;36.46;94564.34;5052211;28;20558;-44
2023/08/26 11:01:17;;;;;;;9.75;7.57;;;;;;;34.92;36.40;94550.44;5052158;28;20238;-44
2023/08/26 11:03:45;;;;;;;12.35;6.95;;;;;;;35.03;36.87;94567.81;5053831;28;20187;-43
2023/08/26 11:06:13;;;;;;;8.57;7.28;;;;;;;35.09;36.57;94555.97;5051927;28;20187;-44
2023/08/26 11:08:40;;;;;;;7.63;6.93;;;;;;;35.17;35.74;94560.63;5052028;28;20267;-44
2023/08/26 11:11:12;;;;;;;8.65;7.80;;;;;;;35.09;36.11;94557.84;5051267;28;20229;-44
2023/08/26 11:13:40;;;;;;;10.32;7.55;;;;;;;34.83;36.29;94539.69;5051433;28;20187;-44
2023/08/26 11:16:08;;;;;;;9.23;7.07;;;;;;;34.72;36.79;94554.28;5051696;28;20264;-44
2023/08/26 11:18:35;;;;;;;8.38;7.47;;;;;;;34.65;36.55;94548.53;5052108;28;20276;-44
2023/08/26 11:21:04;;;;;;;10.60;7.13;;;;;;;34.52;36.89;94542.13;5051323;28;20252;-44
2023/08/26 11:23:32;;;;;;;11.82;8.20;;;;;;;34.58;36.88;94540.16;5051314;28;20191;-43